sensor_id;sensor_type;location;lat;lon;timestamp;P1;durP1;ratioP1;P2;durP2;ratioP2
37805;SDS011;25082;50.870;0.022;2024-03-02T00:01:29;5.07;;;1.33;;
37805;SDS011;25082;50.870;0.022;2024-03-02T00:03:55;4.55;;;1.33;;
37805;SDS011;25082;50.870;0.022;2024-03-02T00:06:21;4.72;;;1.08;;
37805;SDS011;25082;50.870;0.022;2024-03-02T00:08:47;3.33;;;1.23;;
37805;SDS011;25082;50.870;0.022;2024-03-02T00:11:12;5.57;;;1.60;;
37805;SDS011;25082;50.870;0.022;2024-03-02T00:13:40;6.95;;;1.08;;
37805;SDS011;25082;50.870;0.022;2024-03-02T00:16:06;4.30;;;1.10;;
37805;SDS011;25082;50.870;0.022;2024-03-02T00:18:32;4.13;;;1.58;;
37805;SDS011;25082;50.870;0.022;2024-03-02T00:20:59;3.58;;;0.82;;
37805;SDS011;25082;50.870;0.022;2024-03-02T00:23:29;3.92;;;1.02;;
37805;SDS011;25082;50.870;0.022;2024-03-02T00:25:56;5.18;;;1.27;;
37805;SDS011;25082;50.870;0.022;2024-03-02T00:28:35;1.92;;;0.85;;
37805;SDS011;25082;50.870;0.022;2024-03-02T00:31:09;6.95;;;1.58;;
37805;SDS011;25082;50.870;0.022;2024-03-02T00:33:43;3.72;;;0.80;;
37805;SDS011;25082;50.870;0.022;2024-03-02T00:36:14;4.13;;;1.52;;
37805;SDS011;25082;50.870;0.022;2024-03-02T00:38:44;4.30;;;1.50;;
37805;SDS011;25082;50.870;0.022;2024-03-02T00:41:21;3.45;;;1.10;;
37805;SDS011;25082;50.870;0.022;2024-03-02T00:46:22;3.65;;;1.15;;
37805;SDS011;25082;50.870;0.022;2024-03-02T00:51:17;4.45;;;1.15;;
37805;SDS011;25082;50.870;0.022;2024-03-02T00:53:43;3.92;;;1.10;;
37805;SDS011;25082;50.870;0.022;2024-03-02T00:56:10;2.33;;;1.20;;
37805;SDS011;25082;50.870;0.022;2024-03-02T00:58:37;3.75;;;1.20;;
37805;SDS011;25082;50.870;0.022;2024-03-02T01:01:03;4.78;;;1.08;;
37805;SDS011;25082;50.870;0.022;2024-03-02T01:03:29;5.90;;;1.35;;
37805;SDS011;25082;50.870;0.022;2024-03-02T01:05:56;6.43;;;1.45;;
37805;SDS011;25082;50.870;0.022;2024-03-02T01:08:23;4.43;;;1.15;;
37805;SDS011;25082;50.870;0.022;2024-03-02T01:10:49;4.22;;;1.15;;
37805;SDS011;25082;50.870;0.022;2024-03-02T01:13:14;6.03;;;1.38;;
37805;SDS011;25082;50.870;0.022;2024-03-02T01:15:40;2.67;;;0.85;;
37805;SDS011;25082;50.870;0.022;2024-03-02T01:18:06;2.85;;;1.27;;
37805;SDS011;25082;50.870;0.022;2024-03-02T01:20:32;5.53;;;1.20;;
37805;SDS011;25082;50.870;0.022;2024-03-02T01:22:58;5.82;;;1.58;;
37805;SDS011;25082;50.870;0.022;2024-03-02T01:25:24;4.57;;;1.10;;
37805;SDS011;25082;50.870;0.022;2024-03-02T01:27:50;3.60;;;0.98;;
37805;SDS011;25082;50.870;0.022;2024-03-02T01:30:16;5.43;;;1.20;;
37805;SDS011;25082;50.870;0.022;2024-03-02T01:32:42;4.15;;;1.30;;
37805;SDS011;25082;50.870;0.022;2024-03-02T01:35:08;4.07;;;1.00;;
37805;SDS011;25082;50.870;0.022;2024-03-02T01:37:34;3.88;;;1.40;;
37805;SDS011;25082;50.870;0.022;2024-03-02T01:40:00;4.63;;;1.15;;
37805;SDS011;25082;50.870;0.022;2024-03-02T01:42:26;3.90;;;1.10;;
37805;SDS011;25082;50.870;0.022;2024-03-02T01:44:52;3.03;;;1.05;;
37805;SDS011;25082;50.870;0.022;2024-03-02T01:47:17;5.40;;;1.13;;
37805;SDS011;25082;50.870;0.022;2024-03-02T01:49:43;3.58;;;1.58;;
37805;SDS011;25082;50.870;0.022;2024-03-02T01:52:09;3.78;;;1.42;;
37805;SDS011;25082;50.870;0.022;2024-03-02T01:54:36;4.10;;;1.10;;
37805;SDS011;25082;50.870;0.022;2024-03-02T01:57:03;3.83;;;1.20;;
37805;SDS011;25082;50.870;0.022;2024-03-02T01:59:30;4.40;;;1.17;;
37805;SDS011;25082;50.870;0.022;2024-03-02T02:01:56;3.08;;;1.30;;
37805;SDS011;25082;50.870;0.022;2024-03-02T02:04:22;3.95;;;1.27;;
37805;SDS011;25082;50.870;0.022;2024-03-02T02:06:52;3.05;;;1.05;;
37805;SDS011;25082;50.870;0.022;2024-03-02T02:09:18;4.03;;;1.00;;
37805;SDS011;25082;50.870;0.022;2024-03-02T02:11:44;3.40;;;1.20;;
37805;SDS011;25082;50.870;0.022;2024-03-02T02:14:09;5.00;;;1.00;;
37805;SDS011;25082;50.870;0.022;2024-03-02T02:16:36;3.15;;;0.80;;
37805;SDS011;25082;50.870;0.022;2024-03-02T02:19:02;8.02;;;1.63;;
37805;SDS011;25082;50.870;0.022;2024-03-02T02:21:28;3.72;;;1.05;;
37805;SDS011;25082;50.870;0.022;2024-03-02T02:23:53;3.08;;;1.05;;
37805;SDS011;25082;50.870;0.022;2024-03-02T02:26:19;4.25;;;1.23;;
37805;SDS011;25082;50.870;0.022;2024-03-02T02:28:45;6.57;;;1.27;;
37805;SDS011;25082;50.870;0.022;2024-03-02T02:31:14;3.70;;;1.00;;
37805;SDS011;25082;50.870;0.022;2024-03-02T02:33:40;6.53;;;1.45;;
37805;SDS011;25082;50.870;0.022;2024-03-02T02:36:06;3.97;;;1.10;;
37805;SDS011;25082;50.870;0.022;2024-03-02T02:38:36;5.28;;;1.70;;
37805;SDS011;25082;50.870;0.022;2024-03-02T02:41:05;4.15;;;1.42;;
37805;SDS011;25082;50.870;0.022;2024-03-02T02:43:31;8.15;;;1.80;;
37805;SDS011;25082;50.870;0.022;2024-03-02T02:45:57;4.65;;;1.15;;
37805;SDS011;25082;50.870;0.022;2024-03-02T02:48:22;4.22;;;1.17;;
37805;SDS011;25082;50.870;0.022;2024-03-02T02:50:48;6.30;;;1.42;;
37805;SDS011;25082;50.870;0.022;2024-03-02T02:53:14;5.38;;;1.60;;
37805;SDS011;25082;50.870;0.022;2024-03-02T02:55:40;7.25;;;1.02;;
37805;SDS011;25082;50.870;0.022;2024-03-02T02:58:06;6.07;;;1.50;;
37805;SDS011;25082;50.870;0.022;2024-03-02T03:00:33;4.82;;;1.42;;
37805;SDS011;25082;50.870;0.022;2024-03-02T03:02:58;8.23;;;1.80;;
37805;SDS011;25082;50.870;0.022;2024-03-02T03:05:24;5.50;;;1.75;;
37805;SDS011;25082;50.870;0.022;2024-03-02T03:07:50;6.28;;;1.42;;
37805;SDS011;25082;50.870;0.022;2024-03-02T03:10:16;3.60;;;1.10;;
37805;SDS011;25082;50.870;0.022;2024-03-02T03:12:42;4.30;;;1.33;;
37805;SDS011;25082;50.870;0.022;2024-03-02T03:15:08;7.00;;;1.95;;
37805;SDS011;25082;50.870;0.022;2024-03-02T03:17:36;6.90;;;2.30;;
37805;SDS011;25082;50.870;0.022;2024-03-02T03:20:02;5.72;;;1.63;;
37805;SDS011;25082;50.870;0.022;2024-03-02T03:22:29;8.48;;;1.65;;
37805;SDS011;25082;50.870;0.022;2024-03-02T03:24:57;8.57;;;1.77;;
37805;SDS011;25082;50.870;0.022;2024-03-02T03:27:23;7.05;;;1.48;;
37805;SDS011;25082;50.870;0.022;2024-03-02T03:29:49;6.85;;;1.38;;
37805;SDS011;25082;50.870;0.022;2024-03-02T03:32:15;5.70;;;1.40;;
37805;SDS011;25082;50.870;0.022;2024-03-02T03:34:41;6.63;;;1.20;;
37805;SDS011;25082;50.870;0.022;2024-03-02T03:37:07;6.93;;;2.00;;
37805;SDS011;25082;50.870;0.022;2024-03-02T03:39:33;8.25;;;2.08;;
37805;SDS011;25082;50.870;0.022;2024-03-02T03:42:00;6.88;;;2.10;;
37805;SDS011;25082;50.870;0.022;2024-03-02T03:44:26;3.67;;;1.58;;
37805;SDS011;25082;50.870;0.022;2024-03-02T03:46:52;6.32;;;1.30;;
37805;SDS011;25082;50.870;0.022;2024-03-02T03:49:18;11.18;;;3.03;;
37805;SDS011;25082;50.870;0.022;2024-03-02T03:51:44;6.25;;;1.55;;
37805;SDS011;25082;50.870;0.022;2024-03-02T03:54:10;5.70;;;1.42;;
37805;SDS011;25082;50.870;0.022;2024-03-02T03:56:36;6.05;;;2.08;;
37805;SDS011;25082;50.870;0.022;2024-03-02T03:59:02;5.40;;;1.33;;
37805;SDS011;25082;50.870;0.022;2024-03-02T04:01:29;5.43;;;1.75;;
37805;SDS011;25082;50.870;0.022;2024-03-02T04:03:56;6.88;;;1.77;;
37805;SDS011;25082;50.870;0.022;2024-03-02T04:06:23;4.38;;;1.45;;
37805;SDS011;25082;50.870;0.022;2024-03-02T04:08:49;5.85;;;1.67;;
37805;SDS011;25082;50.870;0.022;2024-03-02T04:11:14;6.43;;;1.65;;
37805;SDS011;25082;50.870;0.022;2024-03-02T04:13:40;5.68;;;1.40;;
37805;SDS011;25082;50.870;0.022;2024-03-02T04:16:06;6.63;;;1.60;;
37805;SDS011;25082;50.870;0.022;2024-03-02T04:18:32;3.53;;;1.77;;
37805;SDS011;25082;50.870;0.022;2024-03-02T04:20:58;7.53;;;1.92;;
37805;SDS011;25082;50.870;0.022;2024-03-02T04:23:26;4.10;;;1.20;;
37805;SDS011;25082;50.870;0.022;2024-03-02T04:25:52;5.80;;;1.63;;
37805;SDS011;25082;50.870;0.022;2024-03-02T04:28:18;4.45;;;1.92;;
37805;SDS011;25082;50.870;0.022;2024-03-02T04:30:44;5.85;;;1.70;;
37805;SDS011;25082;50.870;0.022;2024-03-02T04:33:09;6.88;;;1.42;;
37805;SDS011;25082;50.870;0.022;2024-03-02T04:35:35;5.45;;;1.60;;
37805;SDS011;25082;50.870;0.022;2024-03-02T04:38:02;6.40;;;1.70;;
37805;SDS011;25082;50.870;0.022;2024-03-02T04:40:28;6.40;;;1.83;;
37805;SDS011;25082;50.870;0.022;2024-03-02T04:42:53;7.10;;;1.83;;
37805;SDS011;25082;50.870;0.022;2024-03-02T04:45:19;6.53;;;1.40;;
37805;SDS011;25082;50.870;0.022;2024-03-02T04:47:45;5.18;;;1.23;;
37805;SDS011;25082;50.870;0.022;2024-03-02T04:50:11;4.43;;;1.38;;
37805;SDS011;25082;50.870;0.022;2024-03-02T04:52:36;7.03;;;1.65;;
37805;SDS011;25082;50.870;0.022;2024-03-02T04:55:04;6.03;;;1.65;;
37805;SDS011;25082;50.870;0.022;2024-03-02T04:57:54;6.03;;;1.40;;
37805;SDS011;25082;50.870;0.022;2024-03-02T05:00:21;5.53;;;1.63;;
37805;SDS011;25082;50.870;0.022;2024-03-02T05:02:47;6.55;;;1.95;;
37805;SDS011;25082;50.870;0.022;2024-03-02T05:05:12;7.28;;;1.88;;
37805;SDS011;25082;50.870;0.022;2024-03-02T05:07:40;5.80;;;1.42;;
37805;SDS011;25082;50.870;0.022;2024-03-02T05:10:10;5.75;;;1.85;;
37805;SDS011;25082;50.870;0.022;2024-03-02T05:12:39;3.53;;;1.20;;
37805;SDS011;25082;50.870;0.022;2024-03-02T05:15:08;5.10;;;1.42;;
37805;SDS011;25082;50.870;0.022;2024-03-02T05:17:41;5.03;;;1.55;;
37805;SDS011;25082;50.870;0.022;2024-03-02T05:20:10;7.53;;;1.90;;
37805;SDS011;25082;50.870;0.022;2024-03-02T05:22:36;7.65;;;1.67;;
37805;SDS011;25082;50.870;0.022;2024-03-02T05:25:03;8.68;;;1.85;;
37805;SDS011;25082;50.870;0.022;2024-03-02T05:27:30;6.20;;;1.70;;
37805;SDS011;25082;50.870;0.022;2024-03-02T05:29:57;5.68;;;1.77;;
37805;SDS011;25082;50.870;0.022;2024-03-02T05:32:24;10.68;;;1.73;;
37805;SDS011;25082;50.870;0.022;2024-03-02T05:34:49;8.05;;;1.83;;
37805;SDS011;25082;50.870;0.022;2024-03-02T05:37:18;5.95;;;2.17;;
37805;SDS011;25082;50.870;0.022;2024-03-02T05:39:45;6.60;;;1.60;;
37805;SDS011;25082;50.870;0.022;2024-03-02T05:42:11;4.53;;;1.55;;
37805;SDS011;25082;50.870;0.022;2024-03-02T05:44:36;10.30;;;2.08;;
37805;SDS011;25082;50.870;0.022;2024-03-02T05:47:02;5.35;;;1.75;;
37805;SDS011;25082;50.870;0.022;2024-03-02T05:49:29;6.45;;;2.05;;
37805;SDS011;25082;50.870;0.022;2024-03-02T05:51:55;6.68;;;1.88;;
37805;SDS011;25082;50.870;0.022;2024-03-02T05:54:21;5.82;;;1.73;;
37805;SDS011;25082;50.870;0.022;2024-03-02T05:56:47;8.27;;;1.77;;
37805;SDS011;25082;50.870;0.022;2024-03-02T05:59:12;6.20;;;1.83;;
37805;SDS011;25082;50.870;0.022;2024-03-02T06:01:42;8.00;;;1.70;;
37805;SDS011;25082;50.870;0.022;2024-03-02T06:04:09;7.93;;;2.00;;
37805;SDS011;25082;50.870;0.022;2024-03-02T06:06:38;7.80;;;1.33;;
37805;SDS011;25082;50.870;0.022;2024-03-02T06:09:05;7.05;;;1.73;;
37805;SDS011;25082;50.870;0.022;2024-03-02T06:11:37;4.95;;;1.52;;
37805;SDS011;25082;50.870;0.022;2024-03-02T06:14:04;5.80;;;1.73;;
37805;SDS011;25082;50.870;0.022;2024-03-02T06:16:31;7.72;;;2.00;;
37805;SDS011;25082;50.870;0.022;2024-03-02T06:18:57;4.07;;;1.85;;
37805;SDS011;25082;50.870;0.022;2024-03-02T06:21:26;4.13;;;1.50;;
37805;SDS011;25082;50.870;0.022;2024-03-02T06:23:52;7.15;;;1.50;;
37805;SDS011;25082;50.870;0.022;2024-03-02T06:26:18;8.95;;;1.98;;
37805;SDS011;25082;50.870;0.022;2024-03-02T06:28:45;8.13;;;1.65;;
37805;SDS011;25082;50.870;0.022;2024-03-02T06:31:11;7.28;;;1.45;;
37805;SDS011;25082;50.870;0.022;2024-03-02T06:33:37;7.72;;;1.60;;
37805;SDS011;25082;50.870;0.022;2024-03-02T06:36:03;5.75;;;1.73;;
37805;SDS011;25082;50.870;0.022;2024-03-02T06:38:29;6.15;;;1.55;;
37805;SDS011;25082;50.870;0.022;2024-03-02T06:40:57;7.95;;;1.95;;
37805;SDS011;25082;50.870;0.022;2024-03-02T06:43:23;5.75;;;1.23;;
37805;SDS011;25082;50.870;0.022;2024-03-02T06:45:50;5.55;;;1.55;;
37805;SDS011;25082;50.870;0.022;2024-03-02T06:48:16;4.82;;;1.65;;
37805;SDS011;25082;50.870;0.022;2024-03-02T06:50:48;4.53;;;1.83;;
37805;SDS011;25082;50.870;0.022;2024-03-02T06:53:14;8.38;;;1.70;;
37805;SDS011;25082;50.870;0.022;2024-03-02T06:55:45;4.45;;;1.35;;
37805;SDS011;25082;50.870;0.022;2024-03-02T06:58:14;6.05;;;1.50;;
37805;SDS011;25082;50.870;0.022;2024-03-02T07:00:43;6.32;;;1.50;;
37805;SDS011;25082;50.870;0.022;2024-03-02T07:03:12;5.78;;;1.40;;
37805;SDS011;25082;50.870;0.022;2024-03-02T07:05:38;5.25;;;1.13;;
37805;SDS011;25082;50.870;0.022;2024-03-02T07:08:04;11.52;;;1.80;;
37805;SDS011;25082;50.870;0.022;2024-03-02T07:10:31;5.53;;;1.40;;
37805;SDS011;25082;50.870;0.022;2024-03-02T07:12:57;6.15;;;1.65;;
37805;SDS011;25082;50.870;0.022;2024-03-02T07:15:22;5.28;;;1.52;;
37805;SDS011;25082;50.870;0.022;2024-03-02T07:18:07;4.75;;;1.20;;
37805;SDS011;25082;50.870;0.022;2024-03-02T07:20:33;3.95;;;1.45;;
37805;SDS011;25082;50.870;0.022;2024-03-02T07:22:58;5.60;;;1.80;;
37805;SDS011;25082;50.870;0.022;2024-03-02T07:25:24;7.05;;;2.13;;
37805;SDS011;25082;50.870;0.022;2024-03-02T07:27:50;5.90;;;1.67;;
37805;SDS011;25082;50.870;0.022;2024-03-02T07:30:16;5.55;;;1.33;;
37805;SDS011;25082;50.870;0.022;2024-03-02T07:32:42;5.03;;;1.27;;
37805;SDS011;25082;50.870;0.022;2024-03-02T07:35:11;5.05;;;1.52;;
37805;SDS011;25082;50.870;0.022;2024-03-02T07:37:38;7.10;;;1.70;;
37805;SDS011;25082;50.870;0.022;2024-03-02T07:40:04;4.10;;;1.55;;
37805;SDS011;25082;50.870;0.022;2024-03-02T07:42:30;4.43;;;1.40;;
37805;SDS011;25082;50.870;0.022;2024-03-02T07:44:56;6.00;;;1.50;;
37805;SDS011;25082;50.870;0.022;2024-03-02T07:47:21;4.35;;;1.25;;
37805;SDS011;25082;50.870;0.022;2024-03-02T07:49:47;4.28;;;1.40;;
37805;SDS011;25082;50.870;0.022;2024-03-02T07:52:13;3.13;;;1.13;;
37805;SDS011;25082;50.870;0.022;2024-03-02T07:54:39;4.05;;;1.35;;
37805;SDS011;25082;50.870;0.022;2024-03-02T07:57:04;5.53;;;1.55;;
37805;SDS011;25082;50.870;0.022;2024-03-02T07:59:30;5.07;;;1.40;;
37805;SDS011;25082;50.870;0.022;2024-03-02T08:01:56;3.78;;;1.30;;
37805;SDS011;25082;50.870;0.022;2024-03-02T08:04:22;4.35;;;1.25;;
37805;SDS011;25082;50.870;0.022;2024-03-02T08:06:48;5.40;;;1.65;;
37805;SDS011;25082;50.870;0.022;2024-03-02T08:09:14;3.53;;;1.48;;
37805;SDS011;25082;50.870;0.022;2024-03-02T08:11:40;4.57;;;1.35;;
37805;SDS011;25082;50.870;0.022;2024-03-02T08:14:05;3.65;;;1.02;;
37805;SDS011;25082;50.870;0.022;2024-03-02T08:16:31;4.80;;;1.20;;
37805;SDS011;25082;50.870;0.022;2024-03-02T08:18:58;5.68;;;1.73;;
37805;SDS011;25082;50.870;0.022;2024-03-02T08:21:25;5.00;;;1.10;;
37805;SDS011;25082;50.870;0.022;2024-03-02T08:23:51;5.55;;;1.27;;
37805;SDS011;25082;50.870;0.022;2024-03-02T08:26:16;2.97;;;1.17;;
37805;SDS011;25082;50.870;0.022;2024-03-02T08:28:42;3.78;;;1.45;;
37805;SDS011;25082;50.870;0.022;2024-03-02T08:31:08;5.35;;;1.13;;
37805;SDS011;25082;50.870;0.022;2024-03-02T08:33:34;5.85;;;1.40;;
37805;SDS011;25082;50.870;0.022;2024-03-02T08:36:00;3.90;;;1.08;;
37805;SDS011;25082;50.870;0.022;2024-03-02T08:38:26;4.20;;;1.30;;
37805;SDS011;25082;50.870;0.022;2024-03-02T08:40:52;5.63;;;1.60;;
37805;SDS011;25082;50.870;0.022;2024-03-02T08:43:18;4.40;;;1.30;;
37805;SDS011;25082;50.870;0.022;2024-03-02T08:45:44;5.55;;;1.33;;
37805;SDS011;25082;50.870;0.022;2024-03-02T08:48:12;3.95;;;1.30;;
37805;SDS011;25082;50.870;0.022;2024-03-02T08:50:38;4.40;;;1.35;;
37805;SDS011;25082;50.870;0.022;2024-03-02T08:53:04;2.83;;;0.90;;
37805;SDS011;25082;50.870;0.022;2024-03-02T08:55:30;4.00;;;1.50;;
37805;SDS011;25082;50.870;0.022;2024-03-02T08:57:55;4.70;;;1.05;;
37805;SDS011;25082;50.870;0.022;2024-03-02T09:00:21;2.63;;;1.08;;
37805;SDS011;25082;50.870;0.022;2024-03-02T09:02:48;4.00;;;0.93;;
37805;SDS011;25082;50.870;0.022;2024-03-02T09:05:14;4.97;;;1.35;;
37805;SDS011;25082;50.870;0.022;2024-03-02T09:07:40;4.28;;;1.73;;
37805;SDS011;25082;50.870;0.022;2024-03-02T09:10:06;2.85;;;1.00;;
37805;SDS011;25082;50.870;0.022;2024-03-02T09:12:33;4.00;;;1.25;;
37805;SDS011;25082;50.870;0.022;2024-03-02T09:15:02;5.35;;;1.35;;
37805;SDS011;25082;50.870;0.022;2024-03-02T09:17:30;7.30;;;1.13;;
37805;SDS011;25082;50.870;0.022;2024-03-02T09:19:56;4.03;;;1.20;;
37805;SDS011;25082;50.870;0.022;2024-03-02T09:22:22;7.53;;;1.60;;
37805;SDS011;25082;50.870;0.022;2024-03-02T09:24:48;10.88;;;1.80;;
37805;SDS011;25082;50.870;0.022;2024-03-02T09:27:14;7.50;;;1.33;;
37805;SDS011;25082;50.870;0.022;2024-03-02T09:29:40;8.15;;;2.10;;
37805;SDS011;25082;50.870;0.022;2024-03-02T09:32:07;5.82;;;1.67;;
37805;SDS011;25082;50.870;0.022;2024-03-02T09:34:33;4.78;;;1.65;;
37805;SDS011;25082;50.870;0.022;2024-03-02T09:36:59;7.40;;;2.00;;
37805;SDS011;25082;50.870;0.022;2024-03-02T09:39:25;6.13;;;1.20;;
37805;SDS011;25082;50.870;0.022;2024-03-02T09:41:51;5.18;;;1.30;;
37805;SDS011;25082;50.870;0.022;2024-03-02T09:44:17;12.30;;;1.45;;
37805;SDS011;25082;50.870;0.022;2024-03-02T09:46:43;4.22;;;1.20;;
37805;SDS011;25082;50.870;0.022;2024-03-02T09:49:12;5.15;;;1.13;;
37805;SDS011;25082;50.870;0.022;2024-03-02T09:51:38;4.78;;;1.35;;
37805;SDS011;25082;50.870;0.022;2024-03-02T09:54:05;2.33;;;0.80;;
37805;SDS011;25082;50.870;0.022;2024-03-02T09:56:33;6.80;;;1.65;;
37805;SDS011;25082;50.870;0.022;2024-03-02T09:58:59;5.55;;;1.75;;
37805;SDS011;25082;50.870;0.022;2024-03-02T10:01:25;5.45;;;1.42;;
37805;SDS011;25082;50.870;0.022;2024-03-02T10:03:50;8.25;;;1.75;;
37805;SDS011;25082;50.870;0.022;2024-03-02T10:06:23;6.85;;;1.48;;
37805;SDS011;25082;50.870;0.022;2024-03-02T10:08:50;6.82;;;1.30;;
37805;SDS011;25082;50.870;0.022;2024-03-02T10:16:38;4.30;;;1.25;;
37805;SDS011;25082;50.870;0.022;2024-03-02T10:19:18;6.45;;;1.38;;
37805;SDS011;25082;50.870;0.022;2024-03-02T10:21:47;5.18;;;0.85;;
37805;SDS011;25082;50.870;0.022;2024-03-02T10:24:17;6.35;;;1.65;;
37805;SDS011;25082;50.870;0.022;2024-03-02T10:26:43;7.57;;;1.63;;
37805;SDS011;25082;50.870;0.022;2024-03-02T10:29:09;6.65;;;1.75;;
37805;SDS011;25082;50.870;0.022;2024-03-02T10:31:39;6.15;;;1.38;;
37805;SDS011;25082;50.870;0.022;2024-03-02T10:34:09;5.78;;;1.20;;
37805;SDS011;25082;50.870;0.022;2024-03-02T10:36:36;3.00;;;0.90;;
37805;SDS011;25082;50.870;0.022;2024-03-02T10:39:05;5.90;;;1.23;;
37805;SDS011;25082;50.870;0.022;2024-03-02T10:41:34;3.03;;;1.05;;
37805;SDS011;25082;50.870;0.022;2024-03-02T10:44:04;4.07;;;1.38;;
37805;SDS011;25082;50.870;0.022;2024-03-02T10:46:32;3.83;;;1.20;;
37805;SDS011;25082;50.870;0.022;2024-03-02T10:48:59;4.20;;;1.10;;
37805;SDS011;25082;50.870;0.022;2024-03-02T10:51:26;8.40;;;1.70;;
37805;SDS011;25082;50.870;0.022;2024-03-02T10:53:54;2.95;;;1.15;;
37805;SDS011;25082;50.870;0.022;2024-03-02T10:56:21;3.63;;;0.90;;
37805;SDS011;25082;50.870;0.022;2024-03-02T11:01:49;4.28;;;1.20;;
37805;SDS011;25082;50.870;0.022;2024-03-02T11:04:20;4.40;;;1.17;;
37805;SDS011;25082;50.870;0.022;2024-03-02T11:09:16;2.90;;;0.75;;
37805;SDS011;25082;50.870;0.022;2024-03-02T11:11:45;5.25;;;0.80;;
37805;SDS011;25082;50.870;0.022;2024-03-02T11:14:21;5.00;;;0.82;;
37805;SDS011;25082;50.870;0.022;2024-03-02T11:16:50;3.85;;;1.08;;
37805;SDS011;25082;50.870;0.022;2024-03-02T11:19:17;3.75;;;1.10;;
37805;SDS011;25082;50.870;0.022;2024-03-02T11:21:43;2.33;;;0.77;;
37805;SDS011;25082;50.870;0.022;2024-03-02T11:26:53;3.78;;;0.80;;
37805;SDS011;25082;50.870;0.022;2024-03-02T11:32:21;1.95;;;0.70;;
37805;SDS011;25082;50.870;0.022;2024-03-02T11:34:50;2.38;;;1.05;;
37805;SDS011;25082;50.870;0.022;2024-03-02T11:37:20;4.28;;;1.10;;
37805;SDS011;25082;50.870;0.022;2024-03-02T11:39:46;2.78;;;0.80;;
37805;SDS011;25082;50.870;0.022;2024-03-02T11:42:14;3.03;;;1.30;;
37805;SDS011;25082;50.870;0.022;2024-03-02T11:44:47;3.55;;;0.77;;
37805;SDS011;25082;50.870;0.022;2024-03-02T11:47:14;1.95;;;0.77;;
37805;SDS011;25082;50.870;0.022;2024-03-02T11:52:09;3.92;;;0.90;;
37805;SDS011;25082;50.870;0.022;2024-03-02T11:54:40;2.45;;;0.60;;
37805;SDS011;25082;50.870;0.022;2024-03-02T11:57:22;2.17;;;0.82;;
37805;SDS011;25082;50.870;0.022;2024-03-02T11:59:48;3.70;;;0.70;;
37805;SDS011;25082;50.870;0.022;2024-03-02T12:02:19;2.58;;;0.70;;
37805;SDS011;25082;50.870;0.022;2024-03-02T12:04:46;2.10;;;0.52;;
37805;SDS011;25082;50.870;0.022;2024-03-02T12:07:18;2.10;;;0.60;;
37805;SDS011;25082;50.870;0.022;2024-03-02T12:09:48;1.13;;;0.52;;
37805;SDS011;25082;50.870;0.022;2024-03-02T12:12:26;2.78;;;0.60;;
37805;SDS011;25082;50.870;0.022;2024-03-02T12:14:52;2.25;;;0.68;;
37805;SDS011;25082;50.870;0.022;2024-03-02T12:17:20;1.10;;;0.45;;
37805;SDS011;25082;50.870;0.022;2024-03-02T12:19:47;2.88;;;0.93;;
37805;SDS011;25082;50.870;0.022;2024-03-02T12:22:13;3.05;;;0.90;;
37805;SDS011;25082;50.870;0.022;2024-03-02T12:24:41;1.05;;;0.60;;
37805;SDS011;25082;50.870;0.022;2024-03-02T12:27:10;1.30;;;0.73;;
37805;SDS011;25082;50.870;0.022;2024-03-02T12:29:37;1.27;;;0.65;;
37805;SDS011;25082;50.870;0.022;2024-03-02T12:32:04;1.92;;;0.60;;
37805;SDS011;25082;50.870;0.022;2024-03-02T12:34:31;3.00;;;0.60;;
37805;SDS011;25082;50.870;0.022;2024-03-02T12:36:56;1.70;;;0.68;;
37805;SDS011;25082;50.870;0.022;2024-03-02T12:39:22;2.85;;;0.70;;
37805;SDS011;25082;50.870;0.022;2024-03-02T12:41:51;2.20;;;0.82;;
37805;SDS011;25082;50.870;0.022;2024-03-02T12:44:19;2.58;;;0.65;;
37805;SDS011;25082;50.870;0.022;2024-03-02T12:46:45;0.95;;;0.40;;
37805;SDS011;25082;50.870;0.022;2024-03-02T12:49:12;2.00;;;0.60;;
37805;SDS011;25082;50.870;0.022;2024-03-02T12:51:41;5.90;;;0.88;;
37805;SDS011;25082;50.870;0.022;2024-03-02T12:54:08;4.43;;;1.10;;
37805;SDS011;25082;50.870;0.022;2024-03-02T12:56:35;2.92;;;0.90;;
37805;SDS011;25082;50.870;0.022;2024-03-02T12:59:10;2.65;;;0.85;;
37805;SDS011;25082;50.870;0.022;2024-03-02T13:01:55;2.70;;;0.90;;
37805;SDS011;25082;50.870;0.022;2024-03-02T13:04:28;3.60;;;0.90;;
37805;SDS011;25082;50.870;0.022;2024-03-02T13:06:54;1.77;;;0.73;;
37805;SDS011;25082;50.870;0.022;2024-03-02T13:09:23;2.70;;;0.70;;
37805;SDS011;25082;50.870;0.022;2024-03-02T13:11:50;2.92;;;0.80;;
37805;SDS011;25082;50.870;0.022;2024-03-02T13:14:15;2.95;;;0.70;;
37805;SDS011;25082;50.870;0.022;2024-03-02T13:16:41;1.95;;;0.52;;
37805;SDS011;25082;50.870;0.022;2024-03-02T13:19:08;2.72;;;0.68;;
37805;SDS011;25082;50.870;0.022;2024-03-02T13:21:35;1.55;;;0.75;;
37805;SDS011;25082;50.870;0.022;2024-03-02T13:24:00;1.33;;;0.60;;
37805;SDS011;25082;50.870;0.022;2024-03-02T13:26:27;1.80;;;0.95;;
37805;SDS011;25082;50.870;0.022;2024-03-02T13:28:53;3.97;;;0.90;;
37805;SDS011;25082;50.870;0.022;2024-03-02T13:31:18;2.58;;;0.80;;
37805;SDS011;25082;50.870;0.022;2024-03-02T13:33:44;3.42;;;0.75;;
37805;SDS011;25082;50.870;0.022;2024-03-02T13:36:10;3.03;;;0.63;;
37805;SDS011;25082;50.870;0.022;2024-03-02T13:38:36;1.05;;;0.47;;
37805;SDS011;25082;50.870;0.022;2024-03-02T13:41:02;3.60;;;0.55;;
37805;SDS011;25082;50.870;0.022;2024-03-02T13:43:28;4.45;;;0.77;;
37805;SDS011;25082;50.870;0.022;2024-03-02T13:45:57;2.38;;;0.68;;
37805;SDS011;25082;50.870;0.022;2024-03-02T13:48:27;0.73;;;0.50;;
37805;SDS011;25082;50.870;0.022;2024-03-02T13:50:53;1.40;;;0.63;;
37805;SDS011;25082;50.870;0.022;2024-03-02T13:53:19;4.75;;;0.75;;
37805;SDS011;25082;50.870;0.022;2024-03-02T13:55:45;1.73;;;0.60;;
37805;SDS011;25082;50.870;0.022;2024-03-02T13:58:11;0.70;;;0.30;;
37805;SDS011;25082;50.870;0.022;2024-03-02T14:00:38;1.13;;;0.40;;
37805;SDS011;25082;50.870;0.022;2024-03-02T14:03:04;1.80;;;0.50;;
37805;SDS011;25082;50.870;0.022;2024-03-02T14:05:33;1.83;;;0.50;;
37805;SDS011;25082;50.870;0.022;2024-03-02T14:07:59;2.13;;;0.40;;
37805;SDS011;25082;50.870;0.022;2024-03-02T14:10:27;5.28;;;0.50;;
37805;SDS011;25082;50.870;0.022;2024-03-02T14:12:54;1.25;;;0.40;;
37805;SDS011;25082;50.870;0.022;2024-03-02T14:15:20;3.15;;;0.60;;
37805;SDS011;25082;50.870;0.022;2024-03-02T14:17:46;2.17;;;0.60;;
37805;SDS011;25082;50.870;0.022;2024-03-02T14:20:12;0.73;;;0.40;;
37805;SDS011;25082;50.870;0.022;2024-03-02T14:22:38;1.98;;;0.70;;
37805;SDS011;25082;50.870;0.022;2024-03-02T14:25:05;6.30;;;0.68;;
37805;SDS011;25082;50.870;0.022;2024-03-02T14:27:31;1.30;;;0.32;;
37805;SDS011;25082;50.870;0.022;2024-03-02T14:29:57;2.53;;;0.63;;
37805;SDS011;25082;50.870;0.022;2024-03-02T14:32:23;2.05;;;0.30;;
37805;SDS011;25082;50.870;0.022;2024-03-02T14:34:49;2.22;;;0.50;;
37805;SDS011;25082;50.870;0.022;2024-03-02T14:37:15;1.25;;;0.40;;
37805;SDS011;25082;50.870;0.022;2024-03-02T14:39:40;4.80;;;1.38;;
37805;SDS011;25082;50.870;0.022;2024-03-02T14:42:06;3.00;;;0.60;;
37805;SDS011;25082;50.870;0.022;2024-03-02T14:44:33;1.90;;;0.77;;
37805;SDS011;25082;50.870;0.022;2024-03-02T14:46:59;2.08;;;0.50;;
37805;SDS011;25082;50.870;0.022;2024-03-02T14:49:32;3.63;;;0.80;;
37805;SDS011;25082;50.870;0.022;2024-03-02T14:52:01;0.90;;;0.60;;
37805;SDS011;25082;50.870;0.022;2024-03-02T14:54:26;1.73;;;0.90;;
37805;SDS011;25082;50.870;0.022;2024-03-02T14:56:52;1.02;;;0.70;;
37805;SDS011;25082;50.870;0.022;2024-03-02T14:59:18;1.42;;;0.93;;
37805;SDS011;25082;50.870;0.022;2024-03-02T15:01:44;4.95;;;1.10;;
37805;SDS011;25082;50.870;0.022;2024-03-02T15:04:12;2.63;;;1.20;;
37805;SDS011;25082;50.870;0.022;2024-03-02T15:06:40;2.65;;;1.08;;
37805;SDS011;25082;50.870;0.022;2024-03-02T15:09:05;2.20;;;1.00;;
37805;SDS011;25082;50.870;0.022;2024-03-02T15:11:31;4.88;;;1.25;;